Time;durP1;ratioP1;P1;durP2;ratioP2;P2;SDS_P1;SDS_P2;PMS_P1;PMS_P2;Temp;Humidity;BMP_temperature;BMP_pressure;BME280_temperature;BME280_humidity;BME280_pressure;Samples;Min_cycle;Max_cycle;Signal;HPM_P1;HPM_P2
2023/07/21 00:01:07;;;;;;;5.97;2.75;;;16.40;99.90;;;;;;5053901;28;20049;-68
2023/07/21 00:03:33;;;;;;;5.35;2.72;;;16.30;99.90;;;;;;5053558;28;20032;-67
2023/07/21 00:06:06;;;;;;;4.28;3.25;;;16.20;99.90;;;;;;5053552;28;20072;-68
2023/07/21 00:08:38;;;;;;;6.85;3.08;;;16.10;99.90;;;;;;5054475;28;20028;-68
2023/07/21 00:11:04;;;;;;;5.07;2.90;;;16.10;99.90;;;;;;5053539;28;20087;-67
2023/07/21 00:13:34;;;;;;;4.32;2.72;;;16.10;99.90;;;;;;5053416;28;20482;-68
2023/07/21 00:16:02;;;;;;;4.40;2.40;;;16.20;99.90;;;;;;5053575;28;20055;-68
2023/07/21 00:18:29;;;;;;;3.90;2.47;;;16.20;99.90;;;;;;5053642;28;20033;-68
2023/07/21 00:20:54;;;;;;;4.30;2.00;;;16.30;99.90;;;;;;5053564;28;20025;-67
2023/07/21 00:23:20;;;;;;;4.13;3.03;;;16.30;99.90;;;;;;5053599;28;20052;-68
2023/07/21 00:25:47;;;;;;;4.47;2.67;;;16.40;99.90;;;;;;5053688;28;20028;-67
2023/07/21 00:28:12;;;;;;;3.92;2.67;;;16.50;99.90;;;;;;5053585;28;20036;-68
2023/07/21 00:30:38;;;;;;;4.50;2.75;;;16.50;99.90;;;;;;5053299;28;20025;-67
2023/07/21 00:33:04;;;;;;;4.22;2.63;;;16.50;99.90;;;;;;5053280;28;20029;-68
2023/07/21 00:35:31;;;;;;;8.00;2.90;;;16.50;99.90;;;;;;5053451;28;20037;-68
2023/07/21 00:38:00;;;;;;;7.15;2.85;;;16.40;99.90;;;;;;5053131;28;20036;-68
2023/07/21 00:40:26;;;;;;;6.68;2.90;;;16.40;99.90;;;;;;5053503;28;20505;-68
2023/07/21 00:42:51;;;;;;;6.30;3.65;;;16.30;99.90;;;;;;5053127;28;20100;-68
2023/07/21 00:45:17;;;;;;;7.32;2.80;;;16.20;99.90;;;;;;5053151;28;20025;-68
2023/07/21 00:47:44;;;;;;;6.13;3.10;;;16.20;99.90;;;;;;5053298;28;20112;-68
2023/07/21 00:50:11;;;;;;;5.53;2.80;;;16.10;99.90;;;;;;5054647;28;20481;-68
2023/07/21 00:52:37;;;;;;;6.65;3.03;;;16.10;99.90;;;;;;5057045;28;20036;-68
2023/07/21 00:55:04;;;;;;;5.18;3.00;;;16.20;99.90;;;;;;5057075;28;20025;-68
2023/07/21 00:57:31;;;;;;;5.18;2.83;;;16.20;99.90;;;;;;5056956;28;20108;-68
2023/07/21 00:59:57;;;;;;;6.45;3.20;;;16.20;99.90;;;;;;5056953;28;20469;-68
2023/07/21 01:02:23;;;;;;;4.65;2.70;;;16.30;99.90;;;;;;5057074;28;20029;-68
2023/07/21 01:04:49;;;;;;;4.25;2.85;;;16.30;99.90;;;;;;5051689;28;20053;-68
2023/07/21 01:07:15;;;;;;;4.43;2.70;;;16.30;99.90;;;;;;5050323;28;20469;-67
2023/07/21 01:09:43;;;;;;;4.15;2.50;;;16.30;99.90;;;;;;5056332;28;20432;-68
2023/07/21 01:12:09;;;;;;;3.90;2.42;;;16.30;99.90;;;;;;5055289;28;20021;-68
2023/07/21 01:14:36;;;;;;;7.25;3.00;;;16.30;99.90;;;;;;5039709;28;20030;-67
2023/07/21 01:17:03;;;;;;;5.13;2.97;;;16.30;99.90;;;;;;5036291;28;20037;-67
2023/07/21 01:19:30;;;;;;;5.07;3.00;;;16.30;99.90;;;;;;5039888;28;20037;-68
2023/07/21 01:22:15;;;;;;;6.47;3.05;;;16.20;99.90;;;;;;5037723;28;20402;-68
2023/07/21 01:24:49;;;;;;;4.45;2.90;;;16.20;99.90;;;;;;5051625;28;20017;-68
2023/07/21 01:27:15;;;;;;;5.38;2.83;;;16.30;99.90;;;;;;5054791;28;20071;-68
2023/07/21 01:29:43;;;;;;;3.53;2.53;;;16.30;99.90;;;;;;5053500;28;20041;-68
2023/07/21 01:32:12;;;;;;;7.65;3.20;;;16.30;99.90;;;;;;5036376;28;20025;-67
2023/07/21 01:34:39;;;;;;;5.57;2.85;;;16.30;99.90;;;;;;5036783;28;20124;-68
2023/07/21 01:37:07;;;;;;;5.82;2.70;;;16.30;99.90;;;;;;5036706;28;20036;-68
2023/07/21 01:39:41;;;;;;;4.03;2.53;;;16.30;99.90;;;;;;5036365;28;20030;-68
2023/07/21 01:42:08;;;;;;;4.55;2.40;;;16.30;99.90;;;;;;5035194;28;20018;-68
2023/07/21 01:44:34;;;;;;;5.53;3.08;;;16.30;99.90;;;;;;5036314;28;20113;-68
2023/07/21 01:46:59;;;;;;;5.45;2.72;;;16.30;99.90;;;;;;5036217;28;20444;-68
2023/07/21 01:49:25;;;;;;;4.90;2.90;;;16.30;99.90;;;;;;5036246;28;20026;-68
2023/07/21 01:51:57;;;;;;;3.83;2.67;;;16.30;99.90;;;;;;5036087;28;20025;-68
2023/07/21 01:54:41;;;;;;;4.68;3.00;;;16.30;99.90;;;;;;5036165;28;20470;-68
2023/07/21 01:57:09;;;;;;;6.05;3.00;;;16.30;99.90;;;;;;5036801;28;20410;-68
2023/07/21 01:59:36;;;;;;;4.88;2.75;;;16.30;99.90;;;;;;5036142;28;20543;-68
2023/07/21 02:02:02;;;;;;;5.20;2.75;;;16.30;99.90;;;;;;5035306;28;20022;-68
2023/07/21 02:04:28;;;;;;;5.35;2.90;;;16.30;99.90;;;;;;5035872;28;20482;-68
2023/07/21 02:06:54;;;;;;;4.63;3.17;;;16.20;99.90;;;;;;5035881;28;20026;-68
2023/07/21 02:09:20;;;;;;;5.45;3.20;;;16.20;99.90;;;;;;5035843;28;20030;-67
2023/07/21 02:11:48;;;;;;;4.22;2.90;;;16.20;99.90;;;;;;5035780;28;20113;-68
2023/07/21 02:14:14;;;;;;;5.07;2.38;;;16.30;99.90;;;;;;5035740;28;20025;-68
2023/07/21 02:16:40;;;;;;;4.65;3.10;;;16.30;99.90;;;;;;5035773;28;20128;-68
2023/07/21 02:19:06;;;;;;;4.70;2.85;;;16.30;99.90;;;;;;5035650;28;20036;-68
2023/07/21 02:21:32;;;;;;;4.47;2.80;;;16.30;99.90;;;;;;5036025;28;20031;-68
2023/07/21 02:23:58;;;;;;;4.82;2.85;;;16.30;99.90;;;;;;5035556;28;20021;-67
2023/07/21 02:26:24;;;;;;;7.85;3.28;;;16.30;99.90;;;;;;5036052;28;20104;-68
2023/07/21 02:28:49;;;;;;;5.10;3.17;;;16.20;99.90;;;;;;5035448;28;20029;-68
2023/07/21 02:31:15;;;;;;;7.30;3.30;;;16.10;99.90;;;;;;5035487;28;20029;-68
2023/07/21 02:33:41;;;;;;;6.25;3.83;;;16.10;99.90;;;;;;5035334;28;20053;-68
2023/07/21 02:36:07;;;;;;;5.97;3.47;;;16.00;99.90;;;;;;5035268;28;20108;-68
2023/07/21 02:38:33;;;;;;;4.55;3.28;;;16.10;99.90;;;;;;5035217;28;20021;-68
2023/07/21 02:41:05;;;;;;;6.60;3.55;;;16.10;99.90;;;;;;5035241;28;20568;-68
2023/07/21 02:43:34;;;;;;;6.78;3.67;;;16.10;99.90;;;;;;5035103;28;20548;-68
2023/07/21 02:46:00;;;;;;;4.53;3.00;;;16.00;99.90;;;;;;5035426;28;20029;-67
2023/07/21 02:48:26;;;;;;;5.97;3.75;;;16.00;99.90;;;;;;5035011;28;20029;-66
2023/07/21 02:50:55;;;;;;;6.20;4.05;;;15.90;99.90;;;;;;5035067;28;20037;-67
2023/07/21 02:53:21;;;;;;;5.10;3.70;;;15.90;99.90;;;;;;5034992;28;20073;-67
2023/07/21 02:55:47;;;;;;;7.20;4.00;;;15.90;99.90;;;;;;5034941;28;20470;-67
2023/07/21 02:58:15;;;;;;;6.10;3.70;;;15.90;99.90;;;;;;5034854;28;20482;-67
2023/07/21 03:00:41;;;;;;;5.72;3.80;;;15.80;99.90;;;;;;5035208;28;20437;-67
2023/07/21 03:03:12;;;;;;;6.05;3.33;;;15.80;99.90;;;;;;5054560;28;20025;-67
2023/07/21 03:05:38;;;;;;;5.22;3.30;;;15.80;99.90;;;;;;5055308;28;20138;-67
2023/07/21 03:08:04;;;;;;;7.45;3.20;;;15.90;99.90;;;;;;5054600;28;20033;-67
2023/07/21 03:10:30;;;;;;;6.18;3.30;;;15.90;99.90;;;;;;5042604;28;20037;-67
2023/07/21 03:12:56;;;;;;;5.93;3.63;;;15.90;99.90;;;;;;5036935;28;20040;-67
2023/07/21 03:15:21;;;;;;;4.90;3.22;;;15.90;99.90;;;;;;5054389;28;20029;-67
2023/07/21 03:17:47;;;;;;;6.25;3.58;;;16.00;99.90;;;;;;5054372;28;20035;-67
2023/07/21 03:20:14;;;;;;;7.10;4.10;;;16.00;99.90;;;;;;5054356;28;20469;-67
2023/07/21 03:22:42;;;;;;;5.47;3.33;;;16.00;99.90;;;;;;5054231;28;20052;-67
2023/07/21 03:25:09;;;;;;;5.05;3.42;;;15.90;99.90;;;;;;5054238;28;20025;-67
2023/07/21 03:27:35;;;;;;;6.47;3.80;;;15.80;99.90;;;;;;5053019;28;20078;-67
2023/07/21 03:30:01;;;;;;;6.70;4.05;;;15.70;99.90;;;;;;5054433;28;20447;-67
2023/07/21 03:32:27;;;;;;;4.85;3.50;;;15.70;99.90;;;;;;5054062;28;20030;-67
2023/07/21 03:34:54;;;;;;;4.18;3.22;;;15.60;99.90;;;;;;5054143;28;20027;-67
2023/07/21 03:37:23;;;;;;;4.65;3.70;;;15.70;99.90;;;;;;5054517;28;20381;-67
2023/07/21 03:39:49;;;;;;;5.03;3.42;;;15.70;99.90;;;;;;5054039;28;20079;-67
2023/07/21 03:42:15;;;;;;;5.38;3.90;;;15.80;99.90;;;;;;5054263;28;20425;-67
2023/07/21 03:44:40;;;;;;;6.20;3.78;;;15.80;99.90;;;;;;5053918;28;20029;-67
2023/07/21 03:47:06;;;;;;;6.53;3.67;;;15.80;99.90;;;;;;5054061;28;20108;-67
2023/07/21 03:49:34;;;;;;;5.60;3.90;;;15.80;99.90;;;;;;5053819;28;20115;-67
2023/07/21 03:52:00;;;;;;;5.70;3.85;;;15.80;99.90;;;;;;5036178;28;20035;-67
2023/07/21 03:54:25;;;;;;;6.80;3.67;;;15.80;99.90;;;;;;5053708;28;20104;-67
2023/07/21 03:56:51;;;;;;;6.70;3.47;;;15.80;99.90;;;;;;5052600;28;20448;-67
2023/07/21 03:59:16;;;;;;;5.43;3.60;;;15.80;99.90;;;;;;5053582;28;20392;-67
2023/07/21 04:01:42;;;;;;;4.45;2.92;;;15.80;99.90;;;;;;5052025;23;20042;-81
2023/07/21 04:04:08;;;;;;;5.03;3.45;;;15.80;99.90;;;;;;5033815;28;20026;-81
2023/07/21 04:06:33;;;;;;;8.88;3.70;;;15.80;99.90;;;;;;5016079;28;20033;-81
2023/07/21 04:09:00;;;;;;;5.82;3.75;;;15.80;99.90;;;;;;5031955;28;20026;-81
2023/07/21 04:11:25;;;;;;;14.55;7.30;;;15.70;99.90;;;;;;5032830;28;20401;-81
2023/07/21 04:13:51;;;;;;;12.93;6.57;;;15.70;99.90;;;;;;5032822;28;20026;-81
2023/07/21 04:16:17;;;;;;;8.90;5.85;;;15.60;99.90;;;;;;5033152;28;20025;-81
2023/07/21 04:18:42;;;;;;;7.38;4.53;;;15.60;99.90;;;;;;5032392;28;20038;-81
2023/07/21 04:21:08;;;;;;;7.13;4.32;;;15.50;99.90;;;;;;5033449;28;20164;-81
2023/07/21 04:23:34;;;;;;;6.80;4.35;;;15.60;99.90;;;;;;5033498;28;20439;-81
2023/07/21 04:26:00;;;;;;;5.13;3.92;;;15.60;99.90;;;;;;5031903;28;20025;-81
2023/07/21 04:28:26;;;;;;;6.78;3.85;;;15.60;99.90;;;;;;5033329;28;20029;-81
2023/07/21 04:30:53;;;;;;;5.97;3.72;;;15.70;99.90;;;;;;5033352;28;20029;-81
2023/07/21 04:33:19;;;;;;;5.90;4.00;;;15.70;99.90;;;;;;5016011;28;20083;-80
2023/07/21 04:35:46;;;;;;;5.55;3.78;;;15.70;99.90;;;;;;5015885;28;20030;-81
2023/07/21 04:38:12;;;;;;;5.50;3.95;;;15.70;99.90;;;;;;5033424;28;20025;-81
2023/07/21 04:40:38;;;;;;;6.38;3.92;;;15.80;99.90;;;;;;5032215;28;20030;-80
2023/07/21 04:43:03;;;;;;;5.05;3.55;;;15.80;99.90;;;;;;5032107;28;20056;-80
2023/07/21 04:45:29;;;;;;;5.75;3.97;;;15.70;99.90;;;;;;5032144;28;20033;-80
2023/07/21 04:47:55;;;;;;;6.35;4.20;;;15.70;99.90;;;;;;5033209;28;20068;-80
2023/07/21 04:50:21;;;;;;;6.40;3.95;;;15.80;99.90;;;;;;5032084;28;20038;-80
2023/07/21 04:52:47;;;;;;;6.05;4.20;;;15.70;99.90;;;;;;5031242;28;20034;-80
2023/07/21 04:55:13;;;;;;;8.20;4.78;;;15.70;99.90;;;;;;5033483;28;20029;-80
2023/07/21 04:57:39;;;;;;;6.75;4.30;;;15.70;99.90;;;;;;5031936;28;20404;-81
2023/07/21 05:00:11;;;;;;;6.00;3.97;;;15.80;99.90;;;;;;5015553;28;20029;-81
2023/07/21 05:02:38;;;;;;;5.68;3.97;;;15.70;99.90;;;;;;5031780;28;20033;-81
2023/07/21 05:05:04;;;;;;;4.45;3.60;;;15.70;99.90;;;;;;5022858;28;20034;-81
2023/07/21 05:07:29;;;;;;;7.00;4.30;;;15.80;99.90;;;;;;5012117;28;20030;-81
2023/07/21 05:09:55;;;;;;;6.18;4.30;;;15.80;99.90;;;;;;5012443;28;20052;-81
2023/07/21 05:12:23;;;;;;;5.63;3.88;;;15.80;99.90;;;;;;5013209;28;20105;-80
2023/07/21 05:14:48;;;;;;;6.57;4.53;;;15.90;99.90;;;;;;5012249;28;20029;-80
2023/07/21 05:17:14;;;;;;;6.38;4.10;;;15.90;99.90;;;;;;5011956;28;20030;-80
2023/07/21 05:19:40;;;;;;;5.65;4.30;;;16.00;99.90;;;;;;4995630;28;20109;-80
2023/07/21 05:22:06;;;;;;;6.85;4.72;;;16.00;99.90;;;;;;5012476;28;20026;-80
2023/07/21 05:24:31;;;;;;;4.78;3.88;;;16.00;99.90;;;;;;5018998;28;20022;-80
2023/07/21 05:26:57;;;;;;;6.10;4.18;;;16.00;99.90;;;;;;5016245;28;20397;-80
2023/07/21 05:29:23;;;;;;;5.70;3.90;;;16.10;99.90;;;;;;4997709;28;20077;-80
2023/07/21 05:31:48;;;;;;;5.40;3.88;;;16.20;99.90;;;;;;5032779;28;20053;-79
2023/07/21 05:34:14;;;;;;;5.20;3.67;;;16.20;99.90;;;;;;5027547;28;20034;-79
2023/07/21 05:36:40;;;;;;;6.93;3.58;;;16.20;99.90;;;;;;5012462;28;20069;-79
2023/07/21 05:39:05;;;;;;;4.57;3.53;;;16.30;99.90;;;;;;5030622;28;20117;-80
2023/07/21 05:41:31;;;;;;;5.07;3.65;;;16.40;99.90;;;;;;5034626;28;20274;-79
2023/07/21 05:43:58;;;;;;;5.03;3.70;;;16.40;99.90;;;;;;5033616;28;20025;-79
2023/07/21 05:46:24;;;;;;;5.03;3.60;;;16.40;99.90;;;;;;5004158;28;20061;-79
2023/07/21 05:48:49;;;;;;;4.78;3.50;;;16.50;99.90;;;;;;5036102;28;20033;-79
2023/07/21 05:51:17;;;;;;;5.15;3.55;;;16.60;99.90;;;;;;5035002;28;20132;-79
2023/07/21 05:53:43;;;;;;;4.75;3.58;;;16.60;99.90;;;;;;5021384;28;20109;-79
2023/07/21 05:56:11;;;;;;;6.43;4.10;;;16.80;99.90;;;;;;5018379;28;20022;-79
2023/07/21 05:58:37;;;;;;;7.05;4.15;;;16.80;99.90;;;;;;5030273;28;20034;-79
2023/07/21 06:01:03;;;;;;;6.07;4.10;;;16.90;99.90;;;;;;5016569;28;20033;-79
2023/07/21 06:03:29;;;;;;;5.47;3.90;;;16.90;99.90;;;;;;4996595;28;20386;-79
2023/07/21 06:05:55;;;;;;;7.20;3.60;;;16.90;99.90;;;;;;5033824;28;20022;-79
2023/07/21 06:08:21;;;;;;;7.68;3.63;;;16.90;99.90;;;;;;5034377;28;20029;-79
2023/07/21 06:10:47;;;;;;;5.47;3.67;;;16.90;99.90;;;;;;5035778;28;20033;-79
2023/07/21 06:13:12;;;;;;;6.15;3.60;;;16.80;99.90;;;;;;5033960;28;20025;-79
2023/07/21 06:15:38;;;;;;;6.75;3.95;;;16.80;99.90;;;;;;5033582;28;20034;-79
2023/07/21 06:18:04;;;;;;;6.88;4.10;;;16.80;99.90;;;;;;5035441;28;20030;-79
2023/07/21 06:20:29;;;;;;;5.88;4.13;;;16.80;99.90;;;;;;5033978;28;20113;-79
2023/07/21 06:22:57;;;;;;;6.50;4.07;;;16.80;99.90;;;;;;5016897;28;20088;-80
2023/07/21 06:25:22;;;;;;;5.28;3.90;;;16.80;99.90;;;;;;5035499;28;20048;-79
2023/07/21 06:27:50;;;;;;;6.90;4.18;;;16.80;99.90;;;;;;5035433;28;20477;-79
2023/07/21 06:30:16;;;;;;;7.47;4.03;;;16.80;99.90;;;;;;5002273;28;20057;-80
2023/07/21 06:32:42;;;;;;;5.60;3.75;;;16.80;99.90;;;;;;5016579;28;20038;-79
2023/07/21 06:35:09;;;;;;;4.70;3.45;;;16.90;99.90;;;;;;5016204;28;20034;-79
2023/07/21 06:37:34;;;;;;;5.28;3.45;;;16.90;99.90;;;;;;5012536;28;20033;-79
2023/07/21 06:40:01;;;;;;;5.93;3.78;;;17.00;99.90;;;;;;5014066;28;20120;-79
2023/07/21 06:42:27;;;;;;;7.13;3.75;;;17.00;99.90;;;;;;5015345;28;20025;-79
2023/07/21 06:44:53;;;;;;;5.70;3.72;;;17.10;99.90;;;;;;5013110;28;20096;-79
2023/07/21 06:47:19;;;;;;;6.90;3.65;;;17.10;99.90;;;;;;5015004;28;20479;-79
2023/07/21 06:49:45;;;;;;;5.40;3.58;;;17.20;99.90;;;;;;5015221;28;20026;-79
2023/07/21 06:52:11;;;;;;;5.60;3.95;;;17.30;99.90;;;;;;4998122;28;20025;-79
2023/07/21 06:54:38;;;;;;;5.88;3.55;;;17.40;99.90;;;;;;5014000;28;20030;-79
2023/07/21 06:57:05;;;;;;;5.38;3.50;;;17.50;99.90;;;;;;5015451;28;20425;-79
2023/07/21 06:59:31;;;;;;;4.78;3.58;;;17.50;99.90;;;;;;5015267;28;20049;-79
2023/07/21 07:01:58;;;;;;;5.03;3.40;;;17.60;99.90;;;;;;5015164;28;20036;-79
2023/07/21 07:04:25;;;;;;;4.60;3.40;;;17.70;99.90;;;;;;5015420;28;20022;-79
2023/07/21 07:06:52;;;;;;;7.30;3.25;;;17.70;99.90;;;;;;5015133;28;20378;-79
2023/07/21 07:09:17;;;;;;;4.93;3.58;;;17.80;99.90;;;;;;5015029;28;20033;-79
2023/07/21 07:11:43;;;;;;;5.20;3.55;;;17.80;99.90;;;;;;5015010;28;20029;-79
2023/07/21 07:14:09;;;;;;;5.53;3.50;;;17.90;99.90;;;;;;5015007;28;20390;-79
2023/07/21 07:16:36;;;;;;;4.28;3.10;;;18.00;99.90;;;;;;5012340;28;20100;-80
2023/07/21 07:19:01;;;;;;;8.02;3.10;;;18.00;99.90;;;;;;5013620;28;20042;-80
2023/07/21 07:21:27;;;;;;;5.30;3.25;;;18.10;99.90;;;;;;5012641;28;20478;-79
2023/07/21 07:23:52;;;;;;;5.22;3.40;;;18.10;99.90;;;;;;5014007;28;20026;-79
2023/07/21 07:26:19;;;;;;;6.38;3.10;;;18.20;99.90;;;;;;5015088;28;20030;-79
2023/07/21 07:28:45;;;;;;;6.85;3.13;;;18.20;99.90;;;;;;5014980;28;20033;-79
2023/07/21 07:31:11;;;;;;;5.65;3.10;;;18.20;99.90;;;;;;5015019;28;20028;-79
2023/07/21 07:33:37;;;;;;;4.85;3.03;;;18.30;99.90;;;;;;5015217;28;20037;-79
2023/07/21 07:36:02;;;;;;;5.25;3.35;;;18.30;99.90;;;;;;5013356;28;20030;-79
2023/07/21 07:38:30;;;;;;;4.75;3.75;;;18.40;99.90;;;;;;5014379;28;20030;-79
2023/07/21 07:41:05;;;;;;;5.63;3.25;;;18.60;99.90;;;;;;5017273;28;20056;-79
2023/07/21 07:43:32;;;;;;;6.95;3.80;;;18.70;99.90;;;;;;5012979;28;20018;-79
2023/07/21 07:45:58;;;;;;;4.97;3.63;;;18.80;99.90;;;;;;5014523;28;20516;-79
2023/07/21 07:48:24;;;;;;;5.60;3.42;;;18.90;99.90;;;;;;5014281;28;20034;-79
2023/07/21 07:50:53;;;;;;;5.28;3.72;;;19.00;99.90;;;;;;5014005;28;20029;-79
2023/07/21 07:53:19;;;;;;;6.25;3.80;;;19.10;99.90;;;;;;5014747;28;20053;-79
2023/07/21 07:55:45;;;;;;;5.50;2.97;;;19.30;99.90;;;;;;5014465;28;20042;-79
2023/07/21 07:58:14;;;;;;;5.55;3.38;;;19.40;99.90;;;;;;5012922;28;20033;-79
2023/07/21 08:00:44;;;;;;;4.72;3.13;;;19.40;99.90;;;;;;4996400;28;20037;-79
2023/07/21 08:03:10;;;;;;;4.85;3.00;;;19.40;99.90;;;;;;5014630;28;20040;-79
2023/07/21 08:05:37;;;;;;;6.63;2.53;;;19.40;99.90;;;;;;5014096;28;20026;-80
2023/07/21 08:08:04;;;;;;;7.43;3.28;;;19.50;99.90;;;;;;5013924;28;20022;-80
2023/07/21 08:10:30;;;;;;;5.05;2.72;;;19.50;99.90;;;;;;5013982;28;20076;-80
2023/07/21 08:12:57;;;;;;;4.57;3.00;;;19.60;99.90;;;;;;5012771;28;20117;-80
2023/07/21 08:15:23;;;;;;;4.95;3.10;;;19.60;99.90;;;;;;5014876;28;20037;-80
2023/07/21 08:17:50;;;;;;;4.47;3.05;;;19.60;99.90;;;;;;5013272;28;20026;-81
2023/07/21 08:20:18;;;;;;;4.55;2.67;;;19.70;99.90;;;;;;5013989;28;20046;-81
2023/07/21 08:22:48;;;;;;;3.45;2.70;;;19.80;99.90;;;;;;4996402;28;20402;-80
2023/07/21 08:25:15;;;;;;;4.43;3.15;;;19.80;99.90;;;;;;5013780;28;20448;-80
2023/07/21 08:27:41;;;;;;;5.00;2.55;;;19.90;99.90;;;;;;5013961;28;20026;-80
2023/07/21 08:30:10;;;;;;;4.55;2.65;;;19.80;99.90;;;;;;5012586;28;20092;-79
2023/07/21 08:32:37;;;;;;;3.45;2.53;;;19.80;99.90;;;;;;5013738;28;20545;-80
2023/07/21 08:35:04;;;;;;;3.85;2.45;;;19.70;99.90;;;;;;5012585;28;20118;-80
2023/07/21 08:37:30;;;;;;;3.47;2.33;;;19.60;99.90;;;;;;5012665;28;20034;-80
2023/07/21 08:39:56;;;;;;;3.40;2.47;;;19.60;99.90;;;;;;5013274;28;20029;-80
2023/07/21 08:42:24;;;;;;;3.67;2.38;;;19.60;99.90;;;;;;5011856;28;20496;-80
2023/07/21 08:44:54;;;;;;;5.28;2.63;;;19.50;99.90;;;;;;5013586;28;20026;-80
2023/07/21 08:47:24;;;;;;;4.22;2.58;;;19.40;99.90;;;;;;5013470;28;20037;-80
2023/07/21 08:49:50;;;;;;;4.25;2.50;;;19.30;99.90;;;;;;5011341;28;20120;-80
2023/07/21 08:52:16;;;;;;;5.05;2.58;;;19.20;99.90;;;;;;5013604;28;20109;-80
2023/07/21 08:54:46;;;;;;;3.05;2.40;;;19.20;99.90;;;;;;5013824;28;20030;-80
2023/07/21 08:57:12;;;;;;;3.83;2.87;;;19.10;99.90;;;;;;5013944;28;20026;-80
2023/07/21 08:59:39;;;;;;;5.72;3.53;;;19.10;99.90;;;;;;5012220;28;20029;-80
2023/07/21 09:02:05;;;;;;;4.57;3.53;;;18.90;99.90;;;;;;5013484;28;20061;-79
2023/07/21 09:04:31;;;;;;;7.13;3.30;;;18.70;99.90;;;;;;4995944;28;20064;-79
2023/07/21 09:06:59;;;;;;;8.05;3.72;;;18.60;99.90;;;;;;5013777;28;20109;-79
2023/07/21 09:09:26;;;;;;;5.70;3.95;;;18.40;99.90;;;;;;5013412;28;20030;-79
2023/07/21 09:12:02;;;;;;;8.00;4.10;;;18.20;99.90;;;;;;5016181;28;20048;-79
2023/07/21 09:14:35;;;;;;;6.28;3.88;;;18.10;99.90;;;;;;5017529;28;20022;-79
2023/07/21 09:17:05;;;;;;;5.45;3.45;;;18.00;99.90;;;;;;5015813;28;20022;-79
2023/07/21 09:19:34;;;;;;;5.70;3.67;;;17.90;99.90;;;;;;5016900;28;20033;-79
2023/07/21 09:22:00;;;;;;;6.22;3.72;;;17.80;99.90;;;;;;5017281;28;20104;-80
2023/07/21 09:24:25;;;;;;;6.47;3.60;;;17.80;99.90;;;;;;5015434;28;20115;-80
2023/07/21 09:27:13;;;;;;;5.40;3.40;;;17.70;99.90;;;;;;5013698;28;20037;-81
2023/07/21 09:29:42;;;;;;;8.30;4.00;;;17.60;99.90;;;;;;5014826;28;20529;-81
2023/07/21 09:32:27;;;;;;;8.13;4.45;;;17.60;99.90;;;;;;5014946;28;20478;-82
2023/07/21 09:34:54;;;;;;;6.78;3.60;;;17.40;99.90;;;;;;5015255;28;20034;-82
2023/07/21 09:37:20;;;;;;;6.88;3.60;;;17.30;99.90;;;;;;5016747;28;20022;-81
2023/07/21 09:39:52;;;;;;;4.65;3.17;;;17.20;99.90;;;;;;5015429;28;20030;-80
2023/07/21 09:42:23;;;;;;;5.00;3.05;;;17.20;99.90;;;;;;5017026;28;20406;-80
2023/07/21 09:44:50;;;;;;;5.03;3.25;;;17.10;99.90;;;;;;5017055;28;20018;-80
2023/07/21 09:47:17;;;;;;;6.15;3.60;;;17.10;99.90;;;;;;5016662;28;20033;-80
2023/07/21 09:49:44;;;;;;;8.70;3.13;;;17.00;99.90;;;;;;5015239;28;20078;-80
2023/07/21 09:52:17;;;;;;;4.47;2.80;;;17.00;99.90;;;;;;5015392;28;20026;-80
2023/07/21 09:54:45;;;;;;;4.43;2.30;;;17.00;99.90;;;;;;5016943;28;20102;-80
2023/07/21 09:57:22;;;;;;;4.95;3.05;;;17.00;99.90;;;;;;5015083;28;20026;-80
2023/07/21 09:59:50;;;;;;;5.03;2.65;;;17.00;99.90;;;;;;5016336;28;20081;-80
2023/07/21 10:02:16;;;;;;;4.72;2.47;;;17.00;99.90;;;;;;5015152;28;20351;-80
2023/07/21 10:04:46;;;;;;;5.88;2.80;;;17.10;99.90;;;;;;5015435;28;20366;-80
2023/07/21 10:07:12;;;;;;;4.07;2.58;;;17.20;99.90;;;;;;5016023;28;20050;-80
2023/07/21 10:09:39;;;;;;;4.18;2.45;;;17.20;99.90;;;;;;5016068;28;20076;-80
2023/07/21 10:12:09;;;;;;;4.05;2.70;;;17.30;99.90;;;;;;5015968;28;20113;-80
2023/07/21 10:14:38;;;;;;;3.58;2.10;;;17.30;99.90;;;;;;5015959;28;20057;-80
2023/07/21 10:17:08;;;;;;;4.25;2.50;;;17.20;99.90;;;;;;5034851;22;20052;-66
2023/07/21 10:19:44;;;;;;;3.65;2.40;;;17.10;99.90;;;;;;5034457;28;20393;-66
2023/07/21 10:22:12;;;;;;;3.80;2.25;;;17.00;99.90;;;;;;5034597;28;20040;-66
2023/07/21 10:24:48;;;;;;;4.28;2.22;;;16.90;99.90;;;;;;5034826;28;20025;-66
2023/07/21 10:27:23;;;;;;;3.72;2.05;;;16.70;99.90;;;;;;5034560;28;20448;-66
2023/07/21 10:29:53;;;;;;;3.50;2.17;;;16.70;99.90;;;;;;5036626;28;20029;-66
2023/07/21 10:32:22;;;;;;;4.13;1.95;;;16.60;99.90;;;;;;5035190;28;20025;-66
2023/07/21 10:34:51;;;;;;;2.72;1.90;;;16.50;99.90;;;;;;5031083;28;20421;-66
2023/07/21 10:37:17;;;;;;;3.70;2.22;;;16.40;99.90;;;;;;5033935;28;20402;-65
2023/07/21 10:39:53;;;;;;;3.15;1.98;;;16.30;99.90;;;;;;5033204;28;20027;-66
2023/07/21 10:42:19;;;;;;;5.07;2.47;;;16.20;99.90;;;;;;5035152;28;20018;-66
2023/07/21 10:44:47;;;;;;;3.78;2.22;;;16.20;99.90;;;;;;5034174;28;20022;-66
2023/07/21 10:47:17;;;;;;;3.30;1.73;;;16.20;99.90;;;;;;5033763;28;20029;-67
2023/07/21 10:49:44;;;;;;;3.53;2.03;;;16.20;99.90;;;;;;5035057;28;20063;-67
2023/07/21 10:52:09;;;;;;;4.93;2.10;;;16.20;99.90;;;;;;5034785;28;20029;-67
2023/07/21 10:54:37;;;;;;;3.15;1.95;;;16.20;99.90;;;;;;5033523;28;20024;-66
2023/07/21 10:57:03;;;;;;;3.47;1.80;;;16.20;99.90;;;;;;5032348;28;20407;-65
2023/07/21 10:59:33;;;;;;;4.85;2.33;;;16.30;99.90;;;;;;5034112;28;20036;-66
2023/07/21 11:01:59;;;;;;;3.83;2.40;;;16.40;99.90;;;;;;5034557;28;20065;-66
2023/07/21 11:04:25;;;;;;;4.78;2.13;;;16.50;99.90;;;;;;5034459;28;20017;-66
2023/07/21 11:06:53;;;;;;;4.32;2.53;;;16.50;99.90;;;;;;5041040;28;20409;-65
2023/07/21 11:09:21;;;;;;;4.82;2.38;;;16.60;99.90;;;;;;5034401;28;20574;-65
2023/07/21 11:11:52;;;;;;;4.20;2.30;;;16.70;99.90;;;;;;5033848;28;20511;-66
2023/07/21 11:14:25;;;;;;;12.40;2.88;;;16.70;99.90;;;;;;5034109;28;20040;-65
2023/07/21 11:17:01;;;;;;;3.80;2.20;;;16.70;99.90;;;;;;5034387;28;20065;-65
2023/07/21 11:19:29;;;;;;;4.00;2.20;;;16.70;99.90;;;;;;5032963;28;20404;-65
2023/07/21 11:21:54;;;;;;;4.18;2.05;;;16.70;99.90;;;;;;5032237;28;20049;-65
2023/07/21 11:24:25;;;;;;;3.95;2.13;;;16.70;99.90;;;;;;5034202;28;20057;-65
2023/07/21 11:26:56;;;;;;;3.80;2.30;;;16.60;99.90;;;;;;5034171;28;20492;-65
2023/07/21 11:29:24;;;;;;;4.10;2.22;;;16.50;99.90;;;;;;5034046;28;20033;-65
2023/07/21 11:31:49;;;;;;;2.88;1.80;;;16.50;99.90;;;;;;5034100;28;20026;-66
2023/07/21 11:34:25;;;;;;;4.45;2.38;;;16.50;99.90;;;;;;5030912;28;20036;-65
2023/07/21 11:36:59;;;;;;;5.60;2.28;;;16.40;99.90;;;;;;5032778;28;20362;-66
2023/07/21 11:39:27;;;;;;;3.35;2.17;;;16.30;99.90;;;;;;5033387;28;20079;-66
2023/07/21 11:41:54;;;;;;;3.75;2.35;;;16.30;99.90;;;;;;5032200;28;20029;-66
2023/07/21 11:44:28;;;;;;;3.25;2.08;;;16.30;99.90;;;;;;5032288;28;20511;-66
2023/07/21 11:46:58;;;;;;;6.60;2.55;;;16.30;99.90;;;;;;5033502;28;20480;-66
2023/07/21 11:49:28;;;;;;;6.47;2.42;;;16.30;99.90;;;;;;5033947;28;20026;-66
2023/07/21 11:51:55;;;;;;;4.47;2.22;;;16.30;99.90;;;;;;5034488;28;20028;-66
2023/07/21 11:54:24;;;;;;;4.75;2.47;;;16.30;99.90;;;;;;5032490;28;20029;-65
2023/07/21 11:56:51;;;;;;;5.15;2.08;;;16.40;99.90;;;;;;5034066;28;20116;-66
2023/07/21 11:59:21;;;;;;;4.28;2.50;;;16.30;99.90;;;;;;5033791;28;20083;-66
2023/07/21 12:01:47;;;;;;;3.85;2.10;;;16.30;99.90;;;;;;5033800;28;20025;-66
2023/07/21 12:04:13;;;;;;;4.63;1.88;;;16.40;99.90;;;;;;5033595;28;20096;-66
2023/07/21 12:06:40;;;;;;;4.07;1.90;;;16.40;99.90;;;;;;5032512;28;20029;-66
2023/07/21 12:09:07;;;;;;;4.38;2.15;;;16.40;99.90;;;;;;5033643;28;20017;-66
2023/07/21 12:11:36;;;;;;;2.72;1.75;;;16.40;99.90;;;;;;5033603;28;20076;-66
2023/07/21 12:14:03;;;;;;;4.45;2.38;;;16.50;99.90;;;;;;5034164;28;20036;-66
2023/07/21 12:16:35;;;;;;;3.08;1.98;;;16.50;99.90;;;;;;5033484;28;20112;-66
2023/07/21 12:19:04;;;;;;;2.72;1.70;;;16.60;99.90;;;;;;5033978;28;20091;-65
2023/07/21 12:21:31;;;;;;;3.20;1.80;;;16.70;99.90;;;;;;5033507;28;20021;-65
2023/07/21 12:23:57;;;;;;;2.70;1.73;;;16.80;99.90;;;;;;5033537;28;20022;-65
2023/07/21 12:26:24;;;;;;;3.05;1.83;;;16.90;99.90;;;;;;5033480;28;20024;-65
2023/07/21 12:28:53;;;;;;;3.05;1.90;;;17.00;99.90;;;;;;5033944;28;20033;-65
2023/07/21 12:31:20;;;;;;;2.80;1.95;;;17.00;99.90;;;;;;5033433;28;20030;-65
2023/07/21 12:33:47;;;;;;;4.30;2.13;;;17.10;99.90;;;;;;5033890;28;20037;-65
2023/07/21 12:36:14;;;;;;;6.25;1.80;;;17.20;99.90;;;;;;5033609;28;20382;-65
2023/07/21 12:38:41;;;;;;;3.60;2.10;;;17.30;99.90;;;;;;5033215;28;20426;-65
2023/07/21 12:41:07;;;;;;;4.22;2.00;;;17.30;99.90;;;;;;5033775;28;20021;-65
2023/07/21 12:43:33;;;;;;;3.92;2.00;;;17.40;99.90;;;;;;5033273;28;20079;-66
2023/07/21 12:46:00;;;;;;;3.22;1.80;;;17.40;99.90;;;;;;5034518;28;20029;-65